Time;durP1;ratioP1;P1;durP2;ratioP2;P2;SDS_P1;SDS_P2;PMS_P1;PMS_P2;Temp;Humidity;BMP_temperature;BMP_pressure;BME280_temperature;BME280_humidity;BME280_pressure;Samples;Min_cycle;Max_cycle;Signal;HPM_P1;HPM_P2
2021/07/06 00:01:37;;;;;;;8.27;2.50;;;;;;;24.38;53.69;100310.91;5050190;28;20055;-67
2021/07/06 00:04:06;;;;;;;6.05;2.97;;;;;;;24.28;54.68;100318.59;5050375;28;20045;-66
2021/07/06 00:06:33;;;;;;;5.93;2.85;;;;;;;24.23;55.08;100318.78;5049420;28;20040;-66
2021/07/06 00:09:04;;;;;;;7.22;2.58;;;;;;;24.32;54.94;100311.22;5050513;28;20124;-66
2021/07/06 00:11:31;;;;;;;4.53;2.42;;;;;;;24.37;54.86;100312.72;5030792;28;20045;-66
2021/07/06 00:13:59;;;;;;;5.25;2.80;;;;;;;24.22;55.02;100318.84;5031143;28;20046;-66
2021/07/06 00:16:26;;;;;;;5.75;2.30;;;;;;;24.24;55.15;100314.25;5049989;28;20056;-66
2021/07/06 00:18:54;;;;;;;5.05;2.47;;;;;;;24.18;55.36;100306.44;5050340;28;20128;-65
2021/07/06 00:21:23;;;;;;;7.07;2.80;;;;;;;24.18;55.64;100314.53;5030350;28;20049;-66
2021/07/06 00:23:50;;;;;;;6.57;2.88;;;;;;;24.18;55.45;100315.41;5032386;28;20433;-65
2021/07/06 00:26:18;;;;;;;6.43;2.83;;;;;;;24.04;55.04;100312.47;5049926;28;20064;-66
2021/07/06 00:28:46;;;;;;;5.25;2.90;;;;;;;23.77;54.93;100311.06;5049931;28;20467;-66
2021/07/06 00:31:14;;;;;;;5.22;2.22;;;;;;;23.69;54.49;100311.44;5049709;28;20037;-66
2021/07/06 00:33:41;;;;;;;4.00;2.40;;;;;;;23.72;53.87;100310.41;5049872;28;20110;-66
2021/07/06 00:36:09;;;;;;;5.20;2.25;;;;;;;23.76;53.51;100309.34;5050477;28;20033;-66
2021/07/06 00:38:39;;;;;;;5.10;2.60;;;;;;;23.74;53.48;100298.63;5050410;28;20040;-66
2021/07/06 00:41:07;;;;;;;3.38;2.25;;;;;;;23.69;53.46;100308.75;5050093;28;20037;-66
2021/07/06 00:43:36;;;;;;;3.78;2.20;;;;;;;23.60;54.09;100316.34;5049806;28;20037;-66
2021/07/06 00:46:05;;;;;;;5.90;2.55;;;;;;;23.47;54.95;100309.72;5048545;28;20033;-66
2021/07/06 00:48:33;;;;;;;5.13;2.88;;;;;;;23.30;56.09;100310.50;5049409;28;20065;-65
2021/07/06 00:51:01;;;;;;;5.15;2.83;;;;;;;23.40;56.44;100314.50;5050046;28;20041;-66
2021/07/06 00:53:29;;;;;;;7.28;3.00;;;;;;;23.56;55.90;100309.38;5051789;28;20486;-66
2021/07/06 00:55:58;;;;;;;6.93;2.78;;;;;;;23.72;55.06;100305.88;5053962;28;20064;-65
2021/07/06 00:58:27;;;;;;;5.78;2.50;;;;;;;23.78;54.64;100315.50;5039145;28;20047;-66
2021/07/06 01:00:55;;;;;;;4.60;2.67;;;;;;;23.79;54.48;100315.44;5053738;28;20252;-66
2021/07/06 01:03:23;;;;;;;6.95;2.50;;;;;;;23.84;54.21;100315.22;5054082;28;20057;-66
2021/07/06 01:05:51;;;;;;;4.53;2.17;;;;;;;23.86;53.61;100316.03;5053486;28;20048;-65
2021/07/06 01:08:18;;;;;;;7.22;2.00;;;;;;;23.84;53.24;100312.53;5053482;28;20045;-66
2021/07/06 01:10:46;;;;;;;4.22;2.25;;;;;;;23.80;53.14;100313.63;5051627;28;20041;-67
2021/07/06 01:13:15;;;;;;;6.53;2.88;;;;;;;23.73;53.41;100318.44;5053302;28;20047;-66
2021/07/06 01:15:43;;;;;;;5.00;2.75;;;;;;;23.58;53.89;100313.72;5053687;28;20047;-66
2021/07/06 01:18:12;;;;;;;5.35;2.60;;;;;;;23.55;54.54;100310.31;5053454;28;20187;-66
2021/07/06 01:20:45;;;;;;;6.60;2.78;;;;;;;23.58;54.88;100318.22;5052355;28;20128;-66
2021/07/06 01:23:16;;;;;;;3.97;2.78;;;;;;;23.63;55.00;100325.16;5053724;28;20109;-66
2021/07/06 01:25:44;;;;;;;4.63;2.58;;;;;;;23.63;54.88;100318.94;5051095;28;20040;-67
2021/07/06 01:28:12;;;;;;;4.35;2.35;;;;;;;23.56;54.87;100312.06;5053573;28;20047;-66
2021/07/06 01:30:40;;;;;;;6.80;2.83;;;;;;;23.44;55.31;100318.81;5053425;28;20094;-66
2021/07/06 01:33:08;;;;;;;4.15;2.30;;;;;;;23.43;55.69;100311.69;5053030;28;20494;-66
2021/07/06 01:35:36;;;;;;;6.20;2.90;;;;;;;23.25;56.48;100307.09;5051925;28;20414;-66
2021/07/06 01:38:07;;;;;;;7.00;2.80;;;;;;;23.18;57.02;100311.88;5050559;28;20502;-66
2021/07/06 01:40:36;;;;;;;8.32;2.83;;;;;;;23.12;57.64;100305.88;5050915;28;20036;-66
2021/07/06 01:43:04;;;;;;;9.25;3.10;;;;;;;23.21;57.49;100311.75;5051062;28;20043;-67
2021/07/06 01:45:33;;;;;;;7.18;3.28;;;;;;;23.30;57.56;100305.09;5072666;28;20124;-66
2021/07/06 01:48:03;;;;;;;5.90;2.85;;;;;;;23.33;57.59;100307.66;5050803;28;20055;-66
2021/07/06 01:50:32;;;;;;;6.72;2.80;;;;;;;23.16;57.73;100307.53;5051210;28;20502;-66
2021/07/06 01:53:01;;;;;;;4.57;2.60;;;;;;;23.00;58.19;100310.88;5052530;28;20124;-66
2021/07/06 01:55:32;;;;;;;8.50;2.72;;;;;;;23.04;58.32;100311.59;5052439;28;20041;-66
2021/07/06 01:58:04;;;;;;;3.75;2.55;;;;;;;23.14;58.04;100314.78;5053134;28;20575;-66
2021/07/06 02:00:33;;;;;;;5.55;2.60;;;;;;;23.18;58.03;100313.69;5052880;28;20083;-65
2021/07/06 02:03:04;;;;;;;5.75;2.90;;;;;;;23.14;58.14;100310.28;5052906;28;20043;-66
2021/07/06 02:05:35;;;;;;;5.60;2.78;;;;;;;23.13;58.11;100313.91;5050984;28;20449;-66
2021/07/06 02:08:04;;;;;;;6.18;3.00;;;;;;;23.12;58.10;100327.44;5051584;28;20604;-66
2021/07/06 02:10:33;;;;;;;4.80;2.22;;;;;;;23.08;57.94;100323.13;5052750;28;20148;-66
2021/07/06 02:13:05;;;;;;;6.22;2.65;;;;;;;23.10;57.86;100326.63;5052774;28;20041;-66
2021/07/06 02:15:33;;;;;;;5.88;2.70;;;;;;;23.08;57.84;100325.81;5052003;28;20588;-66
2021/07/06 02:18:01;;;;;;;5.25;2.58;;;;;;;23.04;57.88;100325.06;5052618;28;20061;-66
2021/07/06 02:20:29;;;;;;;6.20;2.70;;;;;;;22.98;58.03;100336.09;5052288;28;20040;-66
2021/07/06 02:22:57;;;;;;;7.93;3.10;;;;;;;23.01;58.11;100342.25;5051259;28;20071;-67
2021/07/06 02:25:24;;;;;;;6.93;2.70;;;;;;;23.05;57.83;100334.88;5052352;28;20118;-65
2021/07/06 02:27:53;;;;;;;4.32;2.40;;;;;;;23.05;57.66;100335.78;5052020;28;20044;-67
2021/07/06 02:30:24;;;;;;;7.38;3.28;;;;;;;22.98;57.91;100336.97;5052051;28;20372;-66
2021/07/06 02:32:53;;;;;;;3.75;2.40;;;;;;;22.98;57.74;100336.97;5051834;28;20033;-66
2021/07/06 02:35:23;;;;;;;3.70;2.42;;;;;;;22.93;57.51;100343.50;5051728;28;20048;-66
2021/07/06 02:37:51;;;;;;;9.57;3.35;;;;;;;22.99;57.86;100348.63;5052111;28;20040;-67
2021/07/06 02:40:18;;;;;;;8.55;3.15;;;;;;;23.09;58.08;100341.91;5051989;28;20043;-66
2021/07/06 02:42:46;;;;;;;7.97;3.22;;;;;;;23.16;58.28;100347.91;5051589;28;20040;-66
2021/07/06 02:45:18;;;;;;;5.80;2.90;;;;;;;23.20;58.20;100350.41;5051426;28;20069;-66
2021/07/06 02:47:48;;;;;;;6.25;2.75;;;;;;;23.32;57.77;100346.31;5051327;28;20044;-66
2021/07/06 02:50:17;;;;;;;5.78;2.78;;;;;;;23.38;57.38;100351.41;5051184;28;20040;-66
2021/07/06 02:52:45;;;;;;;5.82;2.60;;;;;;;23.36;57.39;100362.28;5051867;28;20471;-66
2021/07/06 02:55:13;;;;;;;7.25;2.72;;;;;;;23.33;57.73;100364.22;5051667;28;20517;-66
2021/07/06 02:57:41;;;;;;;9.57;2.78;;;;;;;23.36;57.94;100359.59;5050837;28;20041;-66
2021/07/06 03:00:13;;;;;;;6.30;3.05;;;;;;;23.47;58.00;100366.31;5051864;28;20040;-66
2021/07/06 03:02:41;;;;;;;4.72;2.50;;;;;;;23.55;58.05;100370.47;5051833;28;20447;-66
2021/07/06 03:05:13;;;;;;;4.93;2.60;;;;;;;23.56;58.20;100363.25;5051349;28;20064;-66
2021/07/06 03:07:41;;;;;;;8.73;2.80;;;;;;;23.58;58.17;100373.00;5050686;28;20037;-66
2021/07/06 03:10:11;;;;;;;6.68;3.10;;;;;;;23.62;58.16;100373.78;5051180;28;20044;-66
2021/07/06 03:12:40;;;;;;;7.28;2.58;;;;;;;23.63;57.91;100379.06;5051070;28;20128;-66
2021/07/06 03:15:09;;;;;;;5.15;2.60;;;;;;;23.54;58.25;100371.41;5051500;28;20091;-66
2021/07/06 03:17:37;;;;;;;6.72;2.50;;;;;;;23.59;58.14;100368.50;5050991;28;20052;-66
2021/07/06 03:20:05;;;;;;;4.60;2.13;;;;;;;23.65;57.56;100376.31;5051141;28;20037;-66
2021/07/06 03:22:34;;;;;;;5.30;2.30;;;;;;;23.70;57.24;100375.16;5051711;28;20052;-66
2021/07/06 03:25:03;;;;;;;7.93;2.60;;;;;;;23.75;57.20;100377.69;5050311;28;20041;-66
2021/07/06 03:27:30;;;;;;;5.88;2.38;;;;;;;23.82;57.21;100379.16;5051272;28;20036;-66
2021/07/06 03:29:58;;;;;;;6.88;2.30;;;;;;;23.79;57.13;100368.50;5051356;28;20099;-67
2021/07/06 03:32:25;;;;;;;8.00;2.50;;;;;;;23.78;56.94;100375.69;5050810;28;20047;-66
2021/07/06 03:34:53;;;;;;;8.30;2.42;;;;;;;23.80;57.05;100368.44;5051053;28;20045;-66
2021/07/06 03:37:21;;;;;;;5.07;2.30;;;;;;;23.87;56.68;100374.41;5051591;28;20037;-66
2021/07/06 03:39:50;;;;;;;8.93;2.65;;;;;;;23.95;56.32;100371.38;5050668;28;20435;-66
2021/07/06 03:42:17;;;;;;;9.45;3.28;;;;;;;23.97;56.20;100374.84;5051339;28;20558;-67
2021/07/06 03:44:44;;;;;;;7.18;2.30;;;;;;;24.04;56.35;100376.34;5050732;28;20045;-66
2021/07/06 03:47:12;;;;;;;8.02;2.85;;;;;;;24.10;56.40;100378.75;5050155;28;20043;-66
2021/07/06 03:49:39;;;;;;;7.28;2.33;;;;;;;24.09;56.34;100380.56;5050195;28;20037;-66
2021/07/06 03:52:07;;;;;;;6.80;2.30;;;;;;;24.08;56.59;100383.34;5050016;28;20029;-66
2021/07/06 03:54:35;;;;;;;5.80;2.58;;;;;;;24.18;56.51;100376.56;5050558;28;20043;-66
2021/07/06 03:57:05;;;;;;;10.15;2.78;;;;;;;24.24;56.54;100376.31;5050890;28;20037;-66
2021/07/06 03:59:32;;;;;;;3.47;2.15;;;;;;;24.36;56.52;100370.34;5044701;28;20048;-66
2021/07/06 04:01:59;;;;;;;8.40;2.10;;;;;;;24.51;56.46;100372.31;5049907;28;20491;-66
2021/07/06 04:04:27;;;;;;;5.20;2.22;;;;;;;24.69;56.30;100369.66;5050220;28;20068;-66
2021/07/06 04:06:56;;;;;;;7.65;2.63;;;;;;;24.87;56.11;100375.06;5050246;28;20056;-66
2021/07/06 04:09:23;;;;;;;7.32;2.38;;;;;;;24.90;56.14;100379.44;5050289;28;20036;-66
2021/07/06 04:11:51;;;;;;;8.05;2.88;;;;;;;25.10;56.38;100379.34;5050611;28;20489;-67
2021/07/06 04:14:20;;;;;;;6.22;2.25;;;;;;;25.40;55.77;100377.75;5050135;28;20033;-66
2021/07/06 04:16:47;;;;;;;6.10;2.38;;;;;;;25.57;55.78;100376.94;5050500;28;20502;-66
2021/07/06 04:19:15;;;;;;;4.85;2.42;;;;;;;25.69;55.59;100373.56;5049822;28;20120;-66
2021/07/06 04:21:43;;;;;;;9.07;2.33;;;;;;;25.84;55.60;100377.31;5049660;28;20172;-66
2021/07/06 04:24:10;;;;;;;5.32;2.63;;;;;;;26.11;55.50;100381.22;5049636;28;20044;-66
2021/07/06 04:26:38;;;;;;;6.10;2.60;;;;;;;26.38;54.99;100383.41;5049243;28;20051;-66
2021/07/06 04:29:05;;;;;;;5.57;2.03;;;;;;;26.62;54.91;100375.72;5049208;28;20462;-67
2021/07/06 04:31:34;;;;;;;4.40;2.17;;;;;;;26.92;54.46;100380.28;5050229;28;20037;-66
2021/07/06 04:34:02;;;;;;;6.13;2.10;;;;;;;27.20;54.27;100379.53;5050350;28;20044;-67
2021/07/06 04:36:29;;;;;;;5.82;1.90;;;;;;;27.45;53.93;100389.78;5049803;28;20123;-66
2021/07/06 04:38:58;;;;;;;7.40;1.83;;;;;;;27.63;53.60;100382.44;5050004;28;20045;-66
2021/07/06 04:41:25;;;;;;;7.72;2.15;;;;;;;27.80;53.43;100395.81;5050075;28;20124;-66
2021/07/06 04:43:53;;;;;;;3.92;1.70;;;;;;;28.02;53.15;100396.25;5048906;28;20041;-67
2021/07/06 04:46:20;;;;;;;5.88;2.10;;;;;;;28.25;52.94;100397.53;5049816;28;20116;-66
2021/07/06 04:48:49;;;;;;;4.43;1.77;;;;;;;28.54;52.64;100401.09;5049745;28;20072;-66
2021/07/06 04:51:17;;;;;;;7.30;2.22;;;;;;;28.87;52.33;100403.50;5050056;28;20041;-67
2021/07/06 04:53:45;;;;;;;4.60;2.00;;;;;;;29.21;51.73;100411.13;5050306;28;20135;-66
2021/07/06 04:56:14;;;;;;;11.85;2.45;;;;;;;29.50;51.31;100406.47;5049257;28;20099;-66
2021/07/06 04:58:41;;;;;;;25.10;2.70;;;;;;;29.73;50.86;100412.19;5048095;28;20045;-67
2021/07/06 05:01:10;;;;;;;18.70;2.67;;;;;;;30.04;50.46;100409.97;5048030;28;20033;-66
2021/07/06 05:03:40;;;;;;;5.53;2.08;;;;;;;30.32;50.49;100410.72;5049247;28;20056;-67
2021/07/06 05:06:11;;;;;;;10.15;2.13;;;;;;;30.58;50.84;100406.13;5049559;28;20099;-67
2021/07/06 05:08:40;;;;;;;9.38;2.22;;;;;;;30.92;51.70;100413.53;5049424;28;20379;-67
2021/07/06 05:11:07;;;;;;;7.55;2.63;;;;;;;31.18;51.43;100417.06;5048881;28;20037;-66
2021/07/06 05:13:36;;;;;;;3.97;2.05;;;;;;;31.37;51.59;100422.91;5049437;28;20406;-66
2021/07/06 05:16:03;;;;;;;7.57;2.20;;;;;;;31.55;51.58;100420.63;5048754;28;20047;-67
2021/07/06 05:18:31;;;;;;;5.65;2.30;;;;;;;31.74;51.74;100425.53;5049219;28;20120;-67
2021/07/06 05:20:58;;;;;;;6.28;2.15;;;;;;;31.88;51.37;100426.22;5048846;28;20035;-67
2021/07/06 05:23:28;;;;;;;7.25;2.20;;;;;;;32.05;50.56;100425.75;5049244;28;20055;-67
2021/07/06 05:25:55;;;;;;;7.18;2.65;;;;;;;32.07;50.41;100431.09;5049091;28;20063;-66
2021/07/06 05:28:24;;;;;;;5.78;1.90;;;;;;;32.35;49.86;100433.41;5048856;28;20033;-68
2021/07/06 05:30:51;;;;;;;6.57;2.17;;;;;;;32.53;49.81;100425.56;5029437;28;20049;-67
2021/07/06 05:33:19;;;;;;;6.22;2.47;;;;;;;32.84;49.17;100434.91;5046813;28;20508;-68
2021/07/06 05:35:46;;;;;;;6.63;2.63;;;;;;;32.91;49.18;100435.25;5049203;28;20073;-67
2021/07/06 05:38:14;;;;;;;8.77;2.72;;;;;;;32.88;49.25;100430.94;5048483;28;20490;-67
2021/07/06 05:40:44;;;;;;;7.55;2.25;;;;;;;33.05;48.68;100424.91;5053442;28;20045;-66
2021/07/06 05:43:12;;;;;;;8.88;2.55;;;;;;;32.88;49.12;100422.72;5053008;28;20037;-67
2021/07/06 05:45:40;;;;;;;6.15;2.33;;;;;;;33.17;48.35;100423.88;5052528;28;20124;-67
2021/07/06 05:48:07;;;;;;;5.90;2.00;;;;;;;33.41;47.91;100428.34;5051964;28;20621;-67
2021/07/06 05:50:35;;;;;;;9.98;2.65;;;;;;;33.65;47.33;100431.69;5053003;28;20033;-66
2021/07/06 05:53:02;;;;;;;5.00;1.80;;;;;;;33.95;46.64;100431.81;5052426;28;20040;-67
2021/07/06 05:55:29;;;;;;;6.13;2.15;;;;;;;34.18;45.68;100435.28;5052400;28;20049;-67
2021/07/06 05:57:59;;;;;;;5.75;2.05;;;;;;;34.24;45.85;100429.28;5052275;28;20045;-67
2021/07/06 06:00:27;;;;;;;4.85;1.70;;;;;;;34.42;45.17;100434.13;5051598;28;20053;-67
2021/07/06 06:02:54;;;;;;;5.38;1.88;;;;;;;34.26;44.59;100432.78;5052080;28;20051;-68
2021/07/06 06:05:22;;;;;;;5.43;2.05;;;;;;;34.12;44.73;100433.09;5051673;28;20049;-68
2021/07/06 06:58:39;;;;;;;8.95;2.25;;;;;;;34.37;44.56;100462.84;5149412;27;20408;-68
2021/07/06 07:01:06;;;;;;;8.10;2.05;;;;;;;34.34;44.77;100462.22;5139012;27;20058;-69
2021/07/06 07:03:34;;;;;;;7.85;2.20;;;;;;;34.15;45.41;100457.47;5128311;27;20205;-68
2021/07/06 07:06:01;;;;;;;7.07;1.98;;;;;;;34.46;45.17;100463.91;5126713;27;20049;-68
2021/07/06 07:08:29;;;;;;;7.55;1.92;;;;;;;34.84;44.49;100463.25;5127156;27;20049;-68
2021/07/06 07:10:56;;;;;;;5.38;1.80;;;;;;;35.16;43.36;100454.81;5126169;27;20097;-67
2021/07/06 07:13:24;;;;;;;6.38;1.67;;;;;;;35.27;42.97;100465.69;5128360;27;20439;-68
2021/07/06 07:15:53;;;;;;;4.30;2.10;;;;;;;34.92;43.62;100468.03;5127954;27;20046;-67
2021/07/06 07:18:21;;;;;;;7.15;2.15;;;;;;;34.49;44.54;100463.63;5128295;27;20043;-67
2021/07/06 07:20:48;;;;;;;8.75;1.88;;;;;;;34.47;44.95;100456.53;5127131;27;20048;-67
2021/07/06 07:23:16;;;;;;;9.20;2.10;;;;;;;34.49;44.35;100460.88;5121303;27;20142;-66
2021/07/06 07:25:44;;;;;;;7.65;2.35;;;;;;;34.34;45.08;100463.09;5122557;27;20066;-66
2021/07/06 07:28:11;;;;;;;6.50;1.98;;;;;;;34.40;44.72;100469.91;5140780;27;20036;-67
2021/07/06 07:30:39;;;;;;;6.53;1.70;;;;;;;34.26;45.49;100464.81;5135385;27;20111;-67
2021/07/06 07:33:08;;;;;;;7.22;2.58;;;;;;;34.47;45.14;100475.72;5131788;27;20045;-67
2021/07/06 07:35:36;;;;;;;4.80;2.10;;;;;;;34.28;45.07;100479.22;5136627;27;20525;-67
2021/07/06 07:38:04;;;;;;;5.45;1.73;;;;;;;34.34;44.41;100478.69;5137546;27;20054;-67
2021/07/06 07:40:31;;;;;;;7.45;2.20;;;;;;;34.37;44.66;100486.66;5127135;27;20036;-67
2021/07/06 07:43:05;;;;;;;8.27;2.03;;;;;;;34.35;44.93;100483.16;5127026;27;20047;-67
2021/07/06 07:45:33;;;;;;;7.43;2.20;;;;;;;34.63;45.05;100485.22;5129681;27;20035;-67
2021/07/06 07:48:00;;;;;;;6.93;2.47;;;;;;;34.52;45.37;100489.91;5127192;27;20035;-66
2021/07/06 07:50:29;;;;;;;7.28;2.10;;;;;;;34.00;46.26;100478.84;5138803;27;20031;-66
2021/07/06 07:52:57;;;;;;;6.28;1.92;;;;;;;34.16;45.55;100477.53;5135017;27;20031;-67
2021/07/06 07:55:24;;;;;;;7.32;2.45;;;;;;;34.24;45.19;100481.38;5128439;27;20043;-67
2021/07/06 07:57:52;;;;;;;7.05;2.67;;;;;;;34.51;44.99;100485.44;5128510;27;20369;-66
2021/07/06 08:00:19;;;;;;;4.65;2.65;;;;;;;34.88;44.20;100486.63;5126347;27;20050;-66
2021/07/06 08:02:47;;;;;;;6.90;2.67;;;;;;;34.78;43.86;100486.63;5113135;27;20023;-66
2021/07/06 08:05:16;;;;;;;6.70;2.17;;;;;;;34.83;43.22;100490.81;5112642;27;20081;-66
2021/07/06 08:07:45;;;;;;;10.38;3.00;;;;;;;34.80;43.21;100489.19;5099075;27;20039;-67
2021/07/06 08:10:13;;;;;;;4.55;2.15;;;;;;;34.67;43.59;100485.78;5121153;27;20380;-67
2021/07/06 08:12:41;;;;;;;10.52;2.85;;;;;;;34.49;44.14;100492.91;5118741;27;20127;-66
2021/07/06 08:15:09;;;;;;;8.27;2.58;;;;;;;34.24;44.59;100483.25;5128392;27;20087;-67
2021/07/06 08:17:36;;;;;;;7.75;2.30;;;;;;;34.49;44.01;100482.81;5112481;27;20038;-66
2021/07/06 08:20:08;;;;;;;6.93;2.20;;;;;;;34.72;43.06;100489.03;5116747;27;20113;-67
2021/07/06 08:22:37;;;;;;;7.20;1.83;;;;;;;34.86;40.83;100496.88;5118476;27;20127;-66
2021/07/06 08:25:07;;;;;;;7.32;1.92;;;;;;;34.83;41.24;100494.44;5126805;27;20040;-67
2021/07/06 08:27:35;;;;;;;6.53;2.25;;;;;;;34.85;41.56;100489.69;5119391;27;20054;-67
2021/07/06 08:30:03;;;;;;;316.02;24.73;;;;;;;34.92;41.34;100500.97;5119965;27;20457;-67
2021/07/06 08:32:30;;;;;;;6.55;2.00;;;;;;;35.07;39.82;100494.94;5121444;27;20496;-68
2021/07/06 08:34:58;;;;;;;9.20;1.98;;;;;;;35.09;40.04;100490.19;5121327;27;20047;-67
2021/07/06 08:37:25;;;;;;;4.95;2.03;;;;;;;35.28;40.43;100502.25;5129049;27;20038;-68
2021/07/06 08:39:52;;;;;;;6.57;1.83;;;;;;;35.11;40.15;100496.41;5115234;27;20060;-67
2021/07/06 08:42:22;;;;;;;6.75;1.80;;;;;;;35.09;40.35;100492.94;5118469;27;20040;-66
2021/07/06 08:44:50;;;;;;;5.65;1.98;;;;;;;34.56;41.45;100503.22;5116028;27;20058;-67
2021/07/06 08:47:18;;;;;;;6.72;2.08;;;;;;;34.35;42.12;100499.63;5126964;27;20027;-67
2021/07/06 08:49:48;;;;;;;7.82;2.28;;;;;;;34.59;41.57;100499.34;5120864;27;20051;-67
2021/07/06 08:52:18;;;;;;;6.50;1.92;;;;;;;34.80;40.22;100502.91;5121320;27;20035;-67
2021/07/06 08:54:46;;;;;;;11.30;3.15;;;;;;;34.71;40.49;100506.50;5098240;27;20051;-66
2021/07/06 08:57:14;;;;;;;9.70;1.90;;;;;;;34.46;40.31;100502.31;5111216;27;20047;-66
2021/07/06 08:59:43;;;;;;;5.70;1.70;;;;;;;34.64;39.23;100502.53;5114111;27;20062;-67
2021/07/06 09:02:13;;;;;;;4.88;1.77;;;;;;;34.73;37.30;100499.84;5118491;27;20035;-67
2021/07/06 09:04:45;;;;;;;5.40;1.73;;;;;;;34.95;38.42;100496.06;5120189;27;20547;-68
2021/07/06 09:07:13;;;;;;;6.63;1.92;;;;;;;35.10;38.79;100507.53;5125525;27;20039;-67
2021/07/06 09:09:42;;;;;;;5.53;1.83;;;;;;;35.28;38.12;100508.63;5124311;27;20038;-66
2021/07/06 09:12:12;;;;;;;5.95;2.00;;;;;;;35.16;37.58;100518.81;5120350;27;20053;-66
2021/07/06 09:14:43;;;;;;;6.32;1.80;;;;;;;35.31;36.46;100521.22;5122881;27;20043;-66
2021/07/06 09:17:14;;;;;;;9.63;2.33;;;;;;;35.27;35.57;100522.47;5121747;27;20069;-66
2021/07/06 09:19:43;;;;;;;4.30;2.08;;;;;;;35.65;35.71;100514.31;5114749;27;20067;-66
2021/07/06 09:22:13;;;;;;;7.72;2.15;;;;;;;36.03;35.73;100526.38;5118913;27;20054;-66
2021/07/06 09:24:41;;;;;;;3.33;1.83;;;;;;;36.49;35.96;100518.25;5120788;27;20031;-66
2021/07/06 09:27:31;;;;;;;6.65;1.88;;;;;;;36.53;34.96;100525.16;5114178;27;20446;-66
2021/07/06 09:30:12;;;;;;;7.53;2.00;;;;;;;36.39;35.03;100524.75;5121927;27;20045;-66
2021/07/06 09:32:44;;;;;;;6.10;1.80;;;;;;;36.52;35.19;100522.56;5119095;27;20047;-66
2021/07/06 09:35:14;;;;;;;4.55;1.77;;;;;;;36.62;35.31;100524.28;5124380;27;20035;-66
2021/07/06 09:37:50;;;;;;;7.13;1.95;;;;;;;36.73;35.04;100513.13;5118450;27;20053;-66
2021/07/06 09:40:32;;;;;;;4.78;1.80;;;;;;;36.89;34.44;100519.88;5124810;27;20053;-66
2021/07/06 09:43:18;;;;;;;5.00;1.87;;;;;;;36.91;34.42;100523.31;5118037;27;20035;-66
2021/07/06 09:45:52;;;;;;;6.38;1.95;;;;;;;36.73;34.54;100521.38;5116189;27;20077;-67
2021/07/06 09:48:21;;;;;;;4.05;1.77;;;;;;;36.79;33.95;100527.28;5098800;27;20080;-66
2021/07/06 09:50:48;;;;;;;7.90;2.17;;;;;;;36.86;33.95;100532.03;5121364;27;20123;-67
2021/07/06 09:53:26;;;;;;;7.72;2.25;;;;;;;36.55;35.21;100525.91;5119143;27;20111;-67
2021/07/06 09:55:55;;;;;;;12.00;2.95;;;;;;;36.22;36.43;100521.75;5089426;28;20040;-67
2021/07/06 09:58:23;;;;;;;6.95;2.50;;;;;;;35.88;36.55;100537.81;5086973;28;20036;-68
2021/07/06 10:00:51;;;;;;;7.70;2.30;;;;;;;35.54;37.04;100518.06;5087916;28;20490;-67
2021/07/06 10:03:21;;;;;;;5.13;1.83;;;;;;;35.49;36.50;100534.09;5089919;28;20105;-67
2021/07/06 10:05:50;;;;;;;5.72;2.58;;;;;;;35.37;36.61;100524.25;5090467;28;20036;-67
2021/07/06 10:08:19;;;;;;;7.60;2.47;;;;;;;35.59;37.05;100528.63;5091223;28;20048;-68
2021/07/06 10:10:46;;;;;;;7.22;2.30;;;;;;;35.58;37.64;100527.75;5097160;28;20051;-67
2021/07/06 10:13:14;;;;;;;5.90;2.55;;;;;;;35.60;37.66;100533.09;5109385;28;20444;-68
2021/07/06 10:15:42;;;;;;;6.95;2.20;;;;;;;35.70;37.53;100527.66;5096821;28;20036;-67
2021/07/06 10:18:11;;;;;;;6.78;2.20;;;;;;;35.58;37.46;100526.88;5109991;27;20047;-66
2021/07/06 10:20:43;;;;;;;9.68;2.70;;;;;;;35.63;36.70;100529.22;5110473;27;20038;-66
2021/07/06 10:23:10;;;;;;;9.82;2.80;;;;;;;35.47;37.72;100529.75;5111421;27;20043;-67
2021/07/06 10:25:38;;;;;;;6.85;2.30;;;;;;;34.98;38.76;100520.50;5107663;27;20046;-67
2021/07/06 10:28:08;;;;;;;7.82;2.38;;;;;;;34.77;38.99;100523.28;5109431;27;20047;-67
2021/07/06 10:30:42;;;;;;;9.32;2.30;;;;;;;35.01;38.47;100527.56;5107068;27;20127;-67
2021/07/06 10:33:14;;;;;;;5.20;2.25;;;;;;;35.41;37.78;100522.94;5111350;27;20396;-68
2021/07/06 10:35:59;;;;;;;6.38;2.63;;;;;;;35.64;36.64;100530.97;5126741;27;20209;-66
2021/07/06 10:38:41;;;;;;;6.00;2.15;;;;;;;35.84;36.93;100528.09;5112765;27;20043;-67
2021/07/06 10:41:12;;;;;;;7.57;2.58;;;;;;;35.52;36.95;100531.06;5110352;27;20075;-66
2021/07/06 10:43:59;;;;;;;9.50;2.45;;;;;;;35.37;37.02;100521.50;5117021;27;20064;-66
2021/07/06 10:46:32;;;;;;;5.43;2.80;;;;;;;35.41;36.66;100527.56;5115162;27;20069;-67
2021/07/06 10:49:04;;;;;;;5.88;2.40;;;;;;;35.56;35.98;100531.66;5120876;27;20035;-68
2021/07/06 10:51:53;;;;;;;7.40;2.78;;;;;;;35.25;37.83;100530.84;5130394;27;20441;-68
2021/07/06 10:54:39;;;;;;;6.13;2.38;;;;;;;35.19;37.89;100526.75;5099019;28;20083;-67
2021/07/06 10:57:24;;;;;;;7.13;2.15;;;;;;;35.10;37.58;100524.88;5122564;27;20051;-69
2021/07/06 10:59:59;;;;;;;6.55;2.30;;;;;;;35.28;37.44;100527.84;5116366;27;20087;-66
2021/07/06 11:02:28;;;;;;;6.57;2.50;;;;;;;35.15;37.57;100533.53;5124632;27;20126;-67
2021/07/06 11:05:09;;;;;;;6.05;2.92;;;;;;;35.08;37.05;100526.88;5124265;27;20057;-67
2021/07/06 11:07:51;;;;;;;6.45;2.67;;;;;;;35.35;37.13;100530.88;5111037;28;20039;-66
2021/07/06 11:10:33;;;;;;;6.53;2.28;;;;;;;35.22;36.88;100520.16;5127054;27;20100;-66
2021/07/06 11:13:17;;;;;;;6.85;2.60;;;;;;;35.34;36.79;100527.28;5108616;28;20055;-67
2021/07/06 11:15:45;;;;;;;4.85;2.50;;;;;;;35.15;37.27;100524.44;5106877;27;20103;-67
2021/07/06 11:18:13;;;;;;;7.70;2.55;;;;;;;35.04;37.95;100525.44;5113825;27;20043;-67
2021/07/06 11:20:42;;;;;;;6.68;2.42;;;;;;;35.15;37.37;100529.94;5111666;27;20050;-68
2021/07/06 11:23:17;;;;;;;4.80;2.38;;;;;;;35.61;35.69;100521.09;5121578;27;20506;-68
2021/07/06 11:25:47;;;;;;;11.45;3.17;;;;;;;35.92;35.34;100527.38;5123737;27;20051;-66
2021/07/06 11:28:18;;;;;;;8.45;2.65;;;;;;;36.33;34.04;100521.59;5111045;28;20067;-66
2021/07/06 11:30:49;;;;;;;4.30;2.20;;;;;;;36.54;34.84;100521.41;5112636;27;20119;-66
2021/07/06 11:33:18;;;;;;;6.65;2.28;;;;;;;36.58;34.73;100528.34;5111201;28;20035;-67
2021/07/06 11:35:47;;;;;;;7.50;3.15;;;;;;;36.77;35.27;100526.56;5113911;27;20123;-67
2021/07/06 11:38:18;;;;;;;6.00;2.35;;;;;;;36.79;35.24;100524.53;5114057;27;20096;-68
2021/07/06 11:40:48;;;;;;;5.13;2.30;;;;;;;36.92;34.83;100520.44;5098573;28;20044;-67
2021/07/06 11:43:16;;;;;;;9.77;2.13;;;;;;;37.00;34.64;100522.44;5114506;27;20040;-66
2021/07/06 11:45:49;;;;;;;5.63;2.30;;;;;;;36.67;34.77;100527.47;5114195;27;20038;-67
2021/07/06 11:48:18;;;;;;;6.20;2.13;;;;;;;37.12;34.09;100515.72;5113863;27;20047;-66
2021/07/06 11:50:48;;;;;;;6.50;2.67;;;;;;;37.48;33.96;100517.53;5114199;28;20040;-67
2021/07/06 11:53:23;;;;;;;6.53;2.30;;;;;;;37.58;33.88;100513.88;5113907;27;20031;-66
2021/07/06 11:55:51;;;;;;;8.18;3.53;;;;;;;37.74;34.22;100514.06;5112810;27;20043;-67
2021/07/06 11:58:22;;;;;;;8.05;3.08;;;;;;;38.18;34.21;100518.63;5113413;27;20034;-67
2021/07/06 12:00:50;;;;;;;7.88;2.90;;;;;;;38.00;33.74;100516.88;5114197;27;20049;-67
2021/07/06 12:03:22;;;;;;;6.82;2.17;;;;;;;38.04;32.95;100526.59;5114072;27;20515;-67
2021/07/06 12:05:51;;;;;;;4.85;1.80;;;;;;;37.84;31.86;100525.88;5111454;27;20511;-67
2021/07/06 12:08:22;;;;;;;9.05;2.28;;;;;;;37.71;33.14;100525.38;5112422;28;20047;-69
2021/07/06 12:11:08;;;;;;;5.78;2.40;;;;;;;37.32;33.06;100524.75;5111924;27;20111;-67
2021/07/06 12:13:38;;;;;;;8.60;2.40;;;;;;;36.90;35.73;100525.22;5110991;27;20046;-67
2021/07/06 12:16:11;;;;;;;4.88;2.10;;;;;;;36.62;35.89;100531.66;5113275;27;20441;-67
2021/07/06 13:11:23;;;;;;;7.13;2.10;;;;;;;36.52;33.66;100500.53;6158885;22;1539902;-67
2021/07/06 13:13:51;;;;;;;8.93;2.65;;;;;;;36.46;34.56;100499.25;6218478;22;20035;-67
2021/07/06 13:16:26;;;;;;;3.00;2.38;;;;;;;36.19;34.24;100496.41;6219576;22;20047;-68
2021/07/06 13:18:54;;;;;;;4.18;2.25;;;;;;;36.06;33.50;100488.44;6218737;22;20022;-68